Flagler Beach, Florida
Current Conditions -  °F | °C
As of 2:55 AM on Tuesday 21 Oct 2014 (Local Time) from KXFL Reporting Station
NA  
Wind Chill: 67°   Ceiling: NA
Heat Index: 67°   Visibility: NA
Dew Point: 66°   Wind: 0mph
Humidity: 94%   Direction: NA
Pressure: 29.96"   Gusts: NA
Location:  29.47°N, 81.13°W
Report Text: KXFL 210655Z AUTO 00000KT 20/19 A2996 RMK AO2 T01970187 PWINO
Loading
Personal Weather Stations






























Interactive Weather Map
Tropical Storm Tracking
New forecast layout! Learn more

10-Day Weather Forecast

Advertisements
Track Severe Weather on mobile